createdAt,value
2018-08-02T00:00:50.577Z,0
2018-08-02T00:01:51.971Z,0
2018-08-02T00:02:53.368Z,0
2018-08-02T00:03:54.798Z,0
2018-08-02T00:04:56.192Z,0
2018-08-02T00:05:57.589Z,0
2018-08-02T00:06:58.982Z,0
2018-08-02T00:08:00.377Z,0
2018-08-02T00:09:01.776Z,0
2018-08-02T00:10:03.179Z,0
2018-08-02T00:11:04.566Z,0
2018-08-02T00:12:05.968Z,0
2018-08-02T00:13:07.357Z,0
2018-08-02T00:14:08.756Z,0
2018-08-02T00:15:10.148Z,0
2018-08-02T00:16:11.538Z,0
2018-08-02T00:17:12.935Z,0
2018-08-02T00:18:14.335Z,0
2018-08-02T00:19:15.728Z,0
2018-08-02T00:20:17.140Z,0
2018-08-02T00:21:18.542Z,0
2018-08-02T00:22:19.935Z,0
2018-08-02T00:23:21.332Z,0
2018-08-02T00:24:22.725Z,0
2018-08-02T00:25:24.119Z,0
2018-08-02T00:26:25.520Z,0
2018-08-02T00:27:27.075Z,0
2018-08-02T00:28:28.471Z,0
2018-08-02T00:29:29.861Z,0
2018-08-02T00:30:31.260Z,0
2018-08-02T00:31:32.655Z,0
2018-08-02T00:32:34.049Z,0
2018-08-02T00:33:35.444Z,0
2018-08-02T00:34:36.833Z,0
2018-08-02T00:35:38.244Z,0
2018-08-02T00:36:39.657Z,0
2018-08-02T00:37:41.053Z,0
2018-08-02T00:38:42.447Z,0
2018-08-02T00:39:43.884Z,0
2018-08-02T00:40:45.242Z,0
2018-08-02T00:41:46.652Z,0
2018-08-02T00:42:48.036Z,0
2018-08-02T00:43:49.437Z,0
2018-08-02T00:44:50.829Z,0
2018-08-02T00:45:52.228Z,0
2018-08-02T00:46:53.624Z,0
2018-08-02T00:47:55.030Z,0
2018-08-02T00:48:56.422Z,0
2018-08-02T00:49:57.814Z,0
2018-08-02T00:50:59.212Z,0
2018-08-02T00:52:00.600Z,0
2018-08-02T00:53:01.995Z,0
2018-08-02T00:54:03.393Z,0
2018-08-02T00:55:04.788Z,0
2018-08-02T00:56:06.182Z,0
2018-08-02T00:57:07.577Z,0
2018-08-02T00:58:09.010Z,0
2018-08-02T00:59:10.371Z,0
2018-08-02T01:00:11.766Z,0
2018-08-02T01:01:13.193Z,0
2018-08-02T01:02:14.561Z,0
2018-08-02T01:03:15.954Z,0
2018-08-02T01:04:17.350Z,0
2018-08-02T01:05:18.757Z,0
2018-08-02T01:06:20.157Z,0
2018-08-02T01:07:21.593Z,0
2018-08-02T01:08:23.038Z,0
2018-08-02T01:09:24.439Z,0
2018-08-02T01:10:25.833Z,0
2018-08-02T01:11:27.230Z,0
2018-08-02T01:12:28.621Z,0
2018-08-02T01:13:30.017Z,0
2018-08-02T01:14:31.409Z,0
2018-08-02T01:15:32.809Z,0
2018-08-02T01:16:34.208Z,0
2018-08-02T01:17:35.603Z,0
2018-08-02T01:18:37.001Z,0
2018-08-02T01:19:38.398Z,0
2018-08-02T01:20:39.789Z,0
2018-08-02T01:21:41.188Z,0
2018-08-02T01:22:42.583Z,0
2018-08-02T01:23:43.975Z,0
2018-08-02T01:24:45.371Z,0
2018-08-02T01:25:46.766Z,0
2018-08-02T01:26:48.160Z,0
2018-08-02T01:27:49.559Z,0
2018-08-02T01:28:50.949Z,0
2018-08-02T01:29:52.352Z,0
2018-08-02T01:30:53.747Z,0
2018-08-02T01:31:55.140Z,0
2018-08-02T01:32:56.538Z,0
2018-08-02T01:33:57.930Z,0
2018-08-02T01:34:59.326Z,0
2018-08-02T01:36:00.720Z,0
2018-08-02T01:37:02.118Z,0
2018-08-02T01:38:03.523Z,0
2018-08-02T01:39:04.903Z,0
2018-08-02T01:40:06.295Z,0
2018-08-02T01:41:07.691Z,0
2018-08-02T01:42:09.086Z,0
2018-08-02T01:43:10.477Z,0
2018-08-02T01:44:11.876Z,0
2018-08-02T01:45:13.268Z,0
2018-08-02T01:46:14.670Z,0
2018-08-02T01:47:16.059Z,0
2018-08-02T01:48:17.528Z,0
2018-08-02T01:49:19.006Z,0
2018-08-02T01:50:20.403Z,0
2018-08-02T01:51:21.816Z,0
2018-08-02T01:52:23.210Z,0
2018-08-02T01:53:24.603Z,0
2018-08-02T01:54:25.989Z,0
2018-08-02T01:55:27.389Z,0
2018-08-02T01:56:28.784Z,0
2018-08-02T01:57:30.188Z,0
2018-08-02T01:58:31.586Z,0
2018-08-02T01:59:32.977Z,0
2018-08-02T02:00:34.365Z,0
2018-08-02T02:01:35.764Z,0
2018-08-02T02:02:37.158Z,0
2018-08-02T02:03:38.553Z,0
2018-08-02T02:04:39.972Z,0
2018-08-02T02:05:41.370Z,0
2018-08-02T02:06:42.766Z,0
2018-08-02T02:07:44.152Z,0
2018-08-02T02:08:45.545Z,0
2018-08-02T02:09:46.947Z,0
2018-08-02T02:10:48.337Z,0
2018-08-02T02:11:49.732Z,0
2018-08-02T02:12:51.130Z,0
2018-08-02T02:13:52.554Z,0
2018-08-02T02:14:53.947Z,0
2018-08-02T02:15:55.341Z,0
2018-08-02T02:16:56.742Z,0
2018-08-02T02:17:58.144Z,0
2018-08-02T02:18:59.537Z,0
2018-08-02T02:20:00.930Z,0
2018-08-02T02:21:02.323Z,0
2018-08-02T02:22:03.719Z,0
2018-08-02T02:23:05.112Z,0
2018-08-02T02:24:06.511Z,0
2018-08-02T02:25:07.908Z,0
2018-08-02T02:26:09.307Z,0
2018-08-02T02:27:10.700Z,0
2018-08-02T02:28:12.091Z,0
2018-08-02T02:29:13.532Z,0
2018-08-02T02:30:14.977Z,0
2018-08-02T02:31:16.369Z,0
2018-08-02T02:32:17.766Z,0
2018-08-02T02:33:19.213Z,0
2018-08-02T02:34:20.606Z,0
2018-08-02T02:35:22.008Z,0
2018-08-02T02:36:23.414Z,0
2018-08-02T02:37:24.795Z,0
2018-08-02T02:38:26.186Z,0
2018-08-02T02:39:27.577Z,0
2018-08-02T02:40:28.975Z,0
2018-08-02T02:41:30.370Z,0
2018-08-02T02:42:31.766Z,0
2018-08-02T02:43:33.162Z,0
2018-08-02T02:44:34.561Z,0
2018-08-02T02:45:35.951Z,0
2018-08-02T02:46:37.348Z,0
2018-08-02T02:47:38.740Z,0
2018-08-02T02:48:40.142Z,0
2018-08-02T02:49:41.533Z,0
2018-08-02T02:50:42.922Z,0
2018-08-02T02:51:44.316Z,0
2018-08-02T02:52:45.716Z,0
2018-08-02T02:53:47.108Z,0
2018-08-02T02:54:48.503Z,0
2018-08-02T02:55:49.901Z,0
2018-08-02T02:56:51.301Z,0
2018-08-02T02:57:52.694Z,0
2018-08-02T02:58:54.091Z,0
2018-08-02T02:59:55.482Z,0
2018-08-02T03:00:56.877Z,0
2018-08-02T03:01:58.265Z,0
2018-08-02T03:02:59.654Z,0
2018-08-02T03:04:01.048Z,0
2018-08-02T03:05:02.440Z,0
2018-08-02T03:06:03.837Z,0
2018-08-02T03:07:05.235Z,0
2018-08-02T03:08:06.635Z,0
2018-08-02T03:09:08.030Z,0
2018-08-02T03:10:09.477Z,0
2018-08-02T03:11:10.903Z,0
2018-08-02T03:12:12.297Z,0
2018-08-02T03:13:13.688Z,0
2018-08-02T03:14:15.079Z,0
2018-08-02T03:15:16.477Z,0
2018-08-02T03:16:17.871Z,0
2018-08-02T03:17:19.266Z,0
2018-08-02T03:18:20.664Z,0
2018-08-02T03:19:22.058Z,0
2018-08-02T03:20:23.501Z,0
2018-08-02T03:21:24.852Z,0
2018-08-02T03:22:26.249Z,0
2018-08-02T03:23:27.643Z,0
2018-08-02T03:24:29.040Z,0
2018-08-02T03:25:30.438Z,0
2018-08-02T03:26:31.836Z,0
2018-08-02T03:27:33.229Z,0
2018-08-02T03:28:34.626Z,0
2018-08-02T03:29:36.026Z,0
2018-08-02T03:30:37.423Z,0
2018-08-02T03:31:38.822Z,0
2018-08-02T03:32:40.219Z,0
2018-08-02T03:33:41.609Z,4
2018-08-02T03:34:43.000Z,4
2018-08-02T03:35:44.400Z,4
2018-08-02T03:36:45.793Z,0
2018-08-02T03:37:47.189Z,0
2018-08-02T03:38:48.590Z,4
2018-08-02T03:39:49.983Z,4
2018-08-02T03:40:51.376Z,4
2018-08-02T03:41:52.771Z,4
2018-08-02T03:42:54.165Z,4
2018-08-02T03:43:55.556Z,8
2018-08-02T03:44:56.948Z,4
2018-08-02T03:45:58.366Z,8
2018-08-02T03:46:59.738Z,8
2018-08-02T03:48:01.139Z,12
2018-08-02T03:49:02.533Z,12
2018-08-02T03:50:03.932Z,12
2018-08-02T03:51:05.402Z,12
2018-08-02T03:52:06.817Z,20
2018-08-02T03:53:08.213Z,20
2018-08-02T03:54:09.613Z,20
2018-08-02T03:55:11.010Z,28
2018-08-02T03:56:12.407Z,28
2018-08-02T03:57:13.806Z,32
2018-08-02T03:58:15.201Z,36
2018-08-02T03:59:16.603Z,40
2018-08-02T04:00:17.998Z,40
2018-08-02T04:01:19.392Z,48
2018-08-02T04:02:20.784Z,52
2018-08-02T04:03:22.177Z,60
2018-08-02T04:04:23.590Z,64
2018-08-02T04:05:24.987Z,68
2018-08-02T04:06:26.379Z,76
2018-08-02T04:07:27.778Z,84
2018-08-02T04:08:29.176Z,92
2018-08-02T04:09:30.569Z,100
2018-08-02T04:10:31.960Z,108
2018-08-02T04:11:33.356Z,116
2018-08-02T04:12:34.759Z,128
2018-08-02T04:13:36.158Z,132
2018-08-02T04:14:37.555Z,144
2018-08-02T04:15:38.947Z,152
2018-08-02T04:16:40.341Z,164
2018-08-02T04:17:41.736Z,172
2018-08-02T04:18:43.134Z,180
2018-08-02T04:19:44.538Z,192
2018-08-02T04:20:45.935Z,200
2018-08-02T04:21:47.338Z,212
2018-08-02T04:22:48.733Z,216
2018-08-02T04:23:50.137Z,224
2018-08-02T04:24:51.551Z,232
2018-08-02T04:25:52.949Z,240
2018-08-02T04:26:54.351Z,248
2018-08-02T04:27:55.759Z,252
2018-08-02T04:28:57.154Z,264
2018-08-02T04:29:58.551Z,268
2018-08-02T04:30:59.954Z,276
2018-08-02T04:32:01.509Z,284
2018-08-02T04:33:02.954Z,292
2018-08-02T04:34:04.350Z,300
2018-08-02T04:35:05.752Z,308
2018-08-02T04:36:07.149Z,312
2018-08-02T04:37:08.545Z,320
2018-08-02T04:38:09.946Z,328
2018-08-02T04:39:11.347Z,336
2018-08-02T04:40:12.750Z,344
2018-08-02T04:41:14.151Z,352
2018-08-02T04:42:15.598Z,360
2018-08-02T04:43:16.942Z,368
2018-08-02T04:44:18.340Z,380
2018-08-02T04:45:19.746Z,388
2018-08-02T04:46:25.285Z,392
2018-08-02T04:47:27.140Z,404
2018-08-02T04:48:28.655Z,412
2018-08-02T04:49:30.055Z,424
2018-08-02T04:50:31.837Z,432
2018-08-02T04:51:33.574Z,440
2018-08-02T04:52:35.021Z,452
2018-08-02T04:53:36.418Z,460
2018-08-02T04:54:37.818Z,476
2018-08-02T04:55:39.218Z,484
2018-08-02T04:56:40.614Z,496
2018-08-02T04:57:42.014Z,500
2018-08-02T04:58:43.405Z,512
2018-08-02T04:59:44.821Z,520
2018-08-02T05:00:46.195Z,528
2018-08-02T05:01:47.598Z,536
2018-08-02T05:02:48.992Z,544
2018-08-02T05:03:50.397Z,552
2018-08-02T05:04:51.799Z,564
2018-08-02T05:05:53.235Z,572
2018-08-02T05:06:54.630Z,580
2018-08-02T05:07:56.027Z,588
2018-08-02T05:08:57.426Z,596
2018-08-02T05:09:58.823Z,604
2018-08-02T05:11:00.221Z,612
2018-08-02T05:12:01.635Z,616
2018-08-02T05:13:03.030Z,624
2018-08-02T05:14:04.425Z,636
2018-08-02T05:15:05.831Z,640
2018-08-02T05:16:07.234Z,644
2018-08-02T05:17:08.634Z,648
2018-08-02T05:18:10.035Z,656
2018-08-02T05:19:11.437Z,664
2018-08-02T05:20:12.837Z,676
2018-08-02T05:21:14.238Z,692
2018-08-02T05:22:15.685Z,700
2018-08-02T05:23:17.031Z,708
2018-08-02T05:24:18.430Z,720
2018-08-02T05:25:19.825Z,728
2018-08-02T05:26:21.271Z,744
2018-08-02T05:27:22.619Z,756
2018-08-02T05:28:24.016Z,768
2018-08-02T05:29:25.420Z,784
2018-08-02T05:30:26.813Z,796
2018-08-02T05:31:28.206Z,808
2018-08-02T05:32:29.637Z,820
2018-08-02T05:33:31.042Z,828
2018-08-02T05:34:32.635Z,836
2018-08-02T05:35:33.979Z,844
2018-08-02T05:36:36.277Z,852
2018-08-02T05:37:37.300Z,860
2018-08-02T05:38:38.707Z,868
2018-08-02T05:39:40.106Z,876
2018-08-02T05:40:41.507Z,884
2018-08-02T05:41:42.914Z,888
2018-08-02T05:42:44.310Z,900
2018-08-02T05:43:45.704Z,912
2018-08-02T05:44:47.099Z,920
2018-08-02T05:45:48.595Z,932
2018-08-02T05:46:49.994Z,944
2018-08-02T05:47:51.400Z,956
2018-08-02T05:49:56.568Z,976
2018-08-02T05:50:58.078Z,988
2018-08-02T05:51:59.739Z,996
2018-08-02T05:53:03.545Z,1012
2018-08-02T05:54:05.087Z,1020
2018-08-02T05:55:06.758Z,1032
2018-08-02T05:56:47.790Z,1048
2018-08-02T05:57:49.245Z,1056
2018-08-02T05:58:50.577Z,1064
2018-08-02T05:59:51.983Z,1072
2018-08-02T06:00:53.385Z,1080
2018-08-02T06:01:54.783Z,1088
2018-08-02T06:02:56.194Z,1096
2018-08-02T06:03:57.594Z,1108
2018-08-02T06:04:58.994Z,1116
2018-08-02T06:06:00.393Z,1128
2018-08-02T06:07:01.922Z,1144
2018-08-02T06:08:03.325Z,1152
2018-08-02T06:09:04.724Z,1164
2018-08-02T06:10:06.124Z,1172
2018-08-02T06:11:07.525Z,1180
2018-08-02T06:12:08.926Z,1188
2018-08-02T06:13:10.327Z,1204
2018-08-02T06:14:11.724Z,1208
2018-08-02T06:15:13.127Z,1220
2018-08-02T06:16:14.531Z,1228
2018-08-02T06:17:15.924Z,1232
2018-08-02T06:18:17.323Z,1240
2018-08-02T06:19:18.724Z,1248
2018-08-02T06:20:20.119Z,1256
2018-08-02T06:21:21.516Z,1256
2018-08-02T06:22:22.938Z,1260
2018-08-02T06:23:24.316Z,1264
2018-08-02T06:24:25.717Z,1268
2018-08-02T06:25:27.123Z,1272
2018-08-02T06:26:28.523Z,1276
2018-08-02T06:27:29.916Z,1276
2018-08-02T06:28:31.320Z,1272
2018-08-02T06:29:32.729Z,1280
2018-08-02T06:30:34.117Z,1276
2018-08-02T06:31:35.514Z,1276
2018-08-02T06:32:36.914Z,1276
2018-08-02T06:33:38.314Z,1260
2018-08-02T06:34:39.709Z,1272
2018-08-02T06:35:41.106Z,1256
2018-08-02T06:36:42.502Z,1248
2018-08-02T06:37:43.901Z,1264
2018-08-02T06:38:45.301Z,1256
2018-08-02T06:39:46.703Z,1232
2018-08-02T06:40:48.161Z,1228
2018-08-02T06:41:49.544Z,1216
2018-08-02T06:42:50.949Z,1268
2018-08-02T06:43:52.345Z,1260
2018-08-02T06:44:53.746Z,1300
2018-08-02T06:45:55.156Z,1328
2018-08-02T06:46:56.544Z,1372
2018-08-02T06:47:58.027Z,1432
2018-08-02T06:48:59.427Z,1444
2018-08-02T06:50:00.818Z,1456
2018-08-02T06:51:02.225Z,1472
2018-08-02T06:52:03.622Z,1500
2018-08-02T06:53:05.019Z,1548
2018-08-02T06:54:06.420Z,1568
2018-08-02T06:55:07.815Z,1612
2018-08-02T06:56:09.210Z,1648
2018-08-02T06:57:10.610Z,1664
2018-08-02T06:58:12.008Z,1680
2018-08-02T06:59:13.407Z,1700
2018-08-02T07:00:14.803Z,1716
2018-08-02T07:01:16.206Z,1752
2018-08-02T07:02:17.608Z,1764
2018-08-02T07:03:19.006Z,1788
2018-08-02T07:04:20.404Z,1808
2018-08-02T07:05:21.805Z,1824
2018-08-02T07:06:23.226Z,1852
2018-08-02T07:07:24.615Z,1884
2018-08-02T07:08:26.021Z,1904
2018-08-02T07:09:27.417Z,1928
2018-08-02T07:10:28.814Z,1956
2018-08-02T07:11:30.214Z,1984
2018-08-02T07:12:31.635Z,2020
2018-08-02T07:13:33.016Z,2044
2018-08-02T07:14:34.415Z,2072
2018-08-02T07:15:35.821Z,2100
2018-08-02T07:16:37.233Z,2128
2018-08-02T07:17:38.629Z,2160
2018-08-02T07:18:40.036Z,2184
2018-08-02T07:19:41.428Z,2212
2018-08-02T07:20:42.831Z,2252
2018-08-02T07:21:44.235Z,2280
2018-08-02T07:22:45.637Z,2332
2018-08-02T07:23:47.102Z,2364
2018-08-02T07:24:48.436Z,2392
2018-08-02T07:25:49.837Z,2420
2018-08-02T07:26:51.234Z,2444
2018-08-02T07:27:52.744Z,2468
2018-08-02T07:28:54.150Z,2500
2018-08-02T07:29:55.551Z,2516
2018-08-02T07:30:56.946Z,2492
2018-08-02T07:31:58.351Z,2492
2018-08-02T07:32:59.764Z,2540
2018-08-02T07:34:01.169Z,2532
2018-08-02T07:35:02.564Z,2504
2018-08-02T07:36:03.964Z,2480
2018-08-02T07:37:05.368Z,2444
2018-08-02T07:38:06.767Z,2448
2018-08-02T07:39:08.167Z,2440
2018-08-02T07:40:09.564Z,1968
2018-08-02T07:41:10.964Z,1992
2018-08-02T07:42:12.367Z,1768
2018-08-02T07:43:13.811Z,2096
2018-08-02T07:44:15.171Z,2272
2018-08-02T07:45:16.575Z,2404
2018-08-02T07:46:17.970Z,2480
2018-08-02T07:47:19.364Z,2388
2018-08-02T07:48:20.766Z,2544
2018-08-02T07:49:22.171Z,2604
2018-08-02T07:50:23.579Z,2676
2018-08-02T07:51:24.980Z,2800
2018-08-02T07:52:26.380Z,2808
2018-08-02T07:53:27.778Z,2804
2018-08-02T07:54:29.186Z,2856
2018-08-02T07:55:30.589Z,2852
2018-08-02T07:56:31.987Z,2888
2018-08-02T07:57:33.391Z,2872
2018-08-02T07:58:34.792Z,2900
2018-08-02T07:59:36.191Z,2980
2018-08-02T08:00:37.592Z,2956
2018-08-02T08:01:39.004Z,2952
2018-08-02T08:02:40.407Z,2936
2018-08-02T08:03:41.802Z,2984
2018-08-02T08:04:43.207Z,3024
2018-08-02T08:05:44.613Z,3044
2018-08-02T08:06:46.033Z,3056
2018-08-02T08:07:47.558Z,3072
2018-08-02T08:08:48.954Z,3088
2018-08-02T08:09:50.362Z,3116
2018-08-02T08:10:51.783Z,3136
2018-08-02T08:11:53.167Z,3156
2018-08-02T08:12:54.588Z,3168
2018-08-02T08:13:55.981Z,3188
2018-08-02T08:14:57.380Z,3208
2018-08-02T08:15:58.815Z,3232
2018-08-02T08:17:00.193Z,3248
2018-08-02T08:18:01.589Z,3264
2018-08-02T08:19:02.993Z,3280
2018-08-02T08:20:04.426Z,3296
2018-08-02T08:21:05.826Z,3316
2018-08-02T08:22:07.205Z,3344
2018-08-02T08:23:08.602Z,3364
2018-08-02T08:24:10.002Z,3384
2018-08-02T08:25:11.403Z,3404
2018-08-02T08:26:12.800Z,3428
2018-08-02T08:27:14.203Z,3456
2018-08-02T08:28:15.607Z,3484
2018-08-02T08:29:17.033Z,3512
2018-08-02T08:30:18.411Z,3536
2018-08-02T08:31:19.826Z,3568
2018-08-02T08:32:21.291Z,3600
2018-08-02T08:33:22.618Z,3620
2018-08-02T08:34:24.020Z,3640
2018-08-02T08:35:25.423Z,3668
2018-08-02T08:36:26.866Z,3700
2018-08-02T08:37:28.251Z,3736
2018-08-02T08:38:29.632Z,3768
2018-08-02T08:39:31.039Z,3788
2018-08-02T08:40:32.440Z,3820
2018-08-02T08:41:33.848Z,3848
2018-08-02T08:42:35.246Z,3868
2018-08-02T08:43:36.689Z,3884
2018-08-02T08:44:38.058Z,3900
2018-08-02T08:45:39.452Z,3940
2018-08-02T08:46:40.851Z,3984
2018-08-02T08:47:42.351Z,4024
2018-08-02T08:48:43.780Z,4064
2018-08-02T08:49:45.178Z,4088
2018-08-02T08:50:46.615Z,4116
2018-08-02T08:51:47.981Z,4140
2018-08-02T08:52:49.387Z,4184
2018-08-02T08:53:50.792Z,4220
2018-08-02T08:54:52.197Z,4252
2018-08-02T08:55:53.600Z,4296
2018-08-02T08:56:55.028Z,4320
2018-08-02T08:57:56.424Z,4352
2018-08-02T08:58:57.830Z,4408
2018-08-02T08:59:59.235Z,4440
2018-08-02T09:01:00.637Z,4476
2018-08-02T09:02:02.043Z,4528
2018-08-02T09:03:03.476Z,4560
2018-08-02T09:04:04.867Z,4616
2018-08-02T09:05:06.270Z,4632
2018-08-02T09:06:07.670Z,4688
2018-08-02T09:07:09.075Z,4716
2018-08-02T09:08:10.487Z,4760
2018-08-02T09:09:11.895Z,4788
2018-08-02T09:10:13.301Z,4836
2018-08-02T09:11:14.708Z,4880
2018-08-02T09:12:16.111Z,4852
2018-08-02T09:13:17.516Z,4960
2018-08-02T09:14:18.922Z,5020
2018-08-02T09:15:20.330Z,5060
2018-08-02T09:16:21.730Z,5100
2018-08-02T09:17:23.140Z,5144
2018-08-02T09:18:24.551Z,5188
2018-08-02T09:19:25.946Z,5224
2018-08-02T09:20:27.344Z,5256
2018-08-02T09:21:28.747Z,5292
2018-08-02T09:22:30.155Z,5340
2018-08-02T09:23:31.557Z,5388
2018-08-02T09:24:32.966Z,5424
2018-08-02T09:25:34.377Z,5464
2018-08-02T09:26:35.859Z,5348
2018-08-02T09:27:37.347Z,5412
2018-08-02T09:28:38.743Z,5536
2018-08-02T09:29:40.149Z,5596
2018-08-02T09:30:41.554Z,5640
2018-08-02T09:31:42.962Z,5680
2018-08-02T09:32:44.484Z,5720
2018-08-02T09:33:45.769Z,5776
2018-08-02T09:34:47.172Z,5840
2018-08-02T09:35:48.576Z,5888
2018-08-02T09:36:49.975Z,5900
2018-08-02T09:37:51.381Z,5952
2018-08-02T09:38:52.790Z,6024
2018-08-02T09:39:54.189Z,6080
2018-08-02T09:40:55.591Z,6144
2018-08-02T09:41:56.993Z,6224
2018-08-02T09:42:58.432Z,6272
2018-08-02T09:43:59.836Z,6324
2018-08-02T09:45:01.249Z,6356
2018-08-02T09:46:02.652Z,6380
2018-08-02T09:47:04.084Z,6444
2018-08-02T09:48:05.475Z,6548
2018-08-02T09:49:06.874Z,6576
2018-08-02T09:50:08.278Z,6692
2018-08-02T09:51:09.683Z,6780
2018-08-02T09:52:11.090Z,6840
2018-08-02T09:53:12.496Z,6908
2018-08-02T09:54:13.895Z,6972
2018-08-02T09:55:15.296Z,7048
2018-08-02T09:56:16.699Z,7164
2018-08-02T09:57:18.108Z,7192
2018-08-02T09:58:19.517Z,7272
2018-08-02T09:59:20.922Z,7368
2018-08-02T10:00:22.390Z,7432
2018-08-02T10:01:23.798Z,7496
2018-08-02T10:02:25.204Z,7528
2018-08-02T10:03:26.627Z,7592
2018-08-02T10:04:28.011Z,7656
2018-08-02T10:05:29.530Z,7868
2018-08-02T10:06:30.935Z,7932
2018-08-02T10:07:32.338Z,7960
2018-08-02T10:08:33.764Z,8140
2018-08-02T10:09:35.169Z,8252
2018-08-02T10:10:36.581Z,8260
2018-08-02T10:11:37.987Z,8396
2018-08-02T10:12:39.400Z,8484
2018-08-02T10:13:40.803Z,8576
2018-08-02T10:14:42.214Z,8668
2018-08-02T10:15:43.621Z,8800
2018-08-02T10:16:45.024Z,8900
2018-08-02T10:17:46.432Z,8940
2018-08-02T10:18:47.830Z,9004
2018-08-02T10:19:49.299Z,9152
2018-08-02T10:20:50.729Z,9268
2018-08-02T10:21:52.132Z,9384
2018-08-02T10:22:53.535Z,9540
2018-08-02T10:23:54.937Z,9708
2018-08-02T10:24:56.338Z,9808
2018-08-02T10:25:57.747Z,9936
2018-08-02T10:26:59.158Z,10084
2018-08-02T10:28:00.568Z,10236
2018-08-02T10:29:02.027Z,10324
2018-08-02T10:30:03.379Z,10516
2018-08-02T10:31:04.830Z,10668
2018-08-02T10:32:06.184Z,10920
2018-08-02T10:33:07.591Z,11080
2018-08-02T10:34:08.996Z,11252
2018-08-02T10:35:10.545Z,11356
2018-08-02T10:36:11.943Z,11544
2018-08-02T10:37:13.343Z,11692
2018-08-02T10:38:14.756Z,11916
2018-08-02T10:39:16.167Z,12128
2018-08-02T10:40:17.576Z,12336
2018-08-02T10:41:18.985Z,12616
2018-08-02T10:42:20.391Z,12840
2018-08-02T10:43:21.904Z,13144
2018-08-02T10:44:23.330Z,13452
2018-08-02T10:45:24.711Z,13800
2018-08-02T10:46:26.161Z,14024
2018-08-02T10:47:27.526Z,14456
2018-08-02T10:48:28.939Z,14996
2018-08-02T10:49:30.349Z,15640
2018-08-02T10:50:31.761Z,16120
2018-08-02T10:51:33.172Z,16712
2018-08-02T10:52:34.573Z,17728
2018-08-02T10:53:35.982Z,18656
2018-08-02T10:54:37.394Z,20032
2018-08-02T10:55:38.848Z,22016
2018-08-02T10:56:40.480Z,24320
2018-08-02T10:57:41.911Z,26976
2018-08-02T10:58:43.432Z,29728
2018-08-02T10:59:44.838Z,33024
2018-08-02T11:00:46.246Z,35456
2018-08-02T11:01:47.650Z,37792
2018-08-02T11:02:49.062Z,39392
2018-08-02T11:03:50.470Z,40064
2018-08-02T11:04:51.880Z,39808
2018-08-02T11:05:53.287Z,38784
2018-08-02T11:06:54.699Z,37728
2018-08-02T11:07:56.110Z,36256
2018-08-02T11:08:57.522Z,35360
2018-08-02T11:09:59.035Z,34720
2018-08-02T11:11:00.348Z,33952
2018-08-02T11:12:01.756Z,32992
2018-08-02T11:13:03.169Z,31904
2018-08-02T11:14:04.586Z,30560
2018-08-02T11:15:06.002Z,29568
2018-08-02T11:16:07.407Z,28768
2018-08-02T11:17:08.818Z,28256
2018-08-02T11:18:10.229Z,27936
2018-08-02T11:19:11.648Z,27616
2018-08-02T11:20:13.562Z,27200
2018-08-02T11:21:14.985Z,26528
2018-08-02T11:22:16.398Z,26080
2018-08-02T11:23:17.816Z,25664
2018-08-02T11:24:19.232Z,25280
2018-08-02T11:25:20.645Z,25024
2018-08-02T11:26:22.060Z,24672
2018-08-02T11:27:23.467Z,24224
2018-08-02T11:28:24.878Z,23904
2018-08-02T11:29:26.287Z,23936
2018-08-02T11:30:27.694Z,23744
2018-08-02T11:31:29.114Z,23744
2018-08-02T11:32:30.524Z,23648
2018-08-02T11:33:31.942Z,23488
2018-08-02T11:34:33.358Z,23200
2018-08-02T11:35:34.762Z,22944
2018-08-02T11:36:36.172Z,22432
2018-08-02T11:37:37.605Z,21952
2018-08-02T11:38:38.993Z,21728
2018-08-02T11:39:40.408Z,21472
2018-08-02T11:40:41.820Z,21440
2018-08-02T11:41:43.233Z,21472
2018-08-02T11:42:44.641Z,21440
2018-08-02T11:43:46.087Z,21088
2018-08-02T11:44:47.465Z,20704
2018-08-02T11:45:48.874Z,20736
2018-08-02T11:46:50.280Z,20928
2018-08-02T11:47:51.690Z,21024
2018-08-02T11:48:53.095Z,21088
2018-08-02T11:49:54.502Z,21344
2018-08-02T11:50:55.966Z,21280
2018-08-02T11:51:57.326Z,21184
2018-08-02T11:52:58.737Z,21120
2018-08-02T11:54:00.148Z,20992
2018-08-02T11:55:01.561Z,20864
2018-08-02T11:56:02.978Z,20928
2018-08-02T11:57:04.430Z,21056
2018-08-02T11:58:05.803Z,20992
2018-08-02T11:59:07.399Z,21024
2018-08-02T12:00:08.811Z,20960
2018-08-02T12:01:10.402Z,20928
2018-08-02T12:02:11.890Z,20928
2018-08-02T12:03:13.259Z,20832
2018-08-02T12:04:14.650Z,20832
2018-08-02T12:05:16.073Z,20672
2018-08-02T12:06:17.527Z,20640
2018-08-02T12:07:18.943Z,20544
2018-08-02T12:08:20.379Z,20544
2018-08-02T12:09:21.802Z,20544
2018-08-02T12:10:23.181Z,20448
2018-08-02T12:11:24.598Z,20416
2018-08-02T12:12:26.011Z,20384
2018-08-02T12:13:27.424Z,20448
2018-08-02T12:14:28.837Z,20448
2018-08-02T12:15:30.250Z,20480
2018-08-02T12:16:31.742Z,20352
2018-08-02T12:17:33.079Z,20352
2018-08-02T12:18:34.527Z,20448
2018-08-02T12:19:35.883Z,20416
2018-08-02T12:20:37.327Z,19904
2018-08-02T12:21:38.737Z,19712
2018-08-02T12:22:40.153Z,19360
2018-08-02T12:23:41.578Z,19424
2018-08-02T12:24:42.974Z,19616
2018-08-02T12:25:44.381Z,19776
2018-08-02T12:26:45.794Z,19968
2018-08-02T12:27:47.208Z,19072
2018-08-02T12:28:48.619Z,19904
2018-08-02T12:29:50.026Z,20352
2018-08-02T12:30:51.504Z,20384
2018-08-02T12:31:52.860Z,20064
2018-08-02T12:32:54.266Z,19456
2018-08-02T12:33:55.682Z,19200
2018-08-02T12:34:57.097Z,19296
2018-08-02T12:35:58.508Z,18528
2018-08-02T12:37:00.104Z,17536
2018-08-02T12:38:01.517Z,18368
2018-08-02T12:39:02.923Z,20288
2018-08-02T12:40:04.329Z,19456
2018-08-02T12:41:05.739Z,19872
2018-08-02T12:42:07.154Z,19072
2018-08-02T12:43:08.570Z,18432
2018-08-02T12:44:10.040Z,17152
2018-08-02T12:45:11.406Z,6392
2018-08-02T12:46:12.817Z,3712
2018-08-02T12:47:14.225Z,3828
2018-08-02T12:48:15.700Z,4104
2018-08-02T12:49:17.044Z,7812
2018-08-02T12:50:18.457Z,19424
2018-08-02T12:51:19.874Z,19648
2018-08-02T12:52:21.331Z,20032
2018-08-02T12:53:22.697Z,19808
2018-08-02T12:54:24.188Z,18432
2018-08-02T12:55:25.520Z,8604
2018-08-02T12:56:26.928Z,4416
2018-08-02T12:57:28.334Z,6944
2018-08-02T12:58:29.752Z,19104
2018-08-02T12:59:31.166Z,20032
2018-08-02T13:00:32.578Z,20512
2018-08-02T13:01:33.995Z,20384
2018-08-02T13:02:35.403Z,19648
2018-08-02T13:03:36.818Z,19776
2018-08-02T13:04:38.230Z,17536
2018-08-02T13:05:39.644Z,9308
2018-08-02T13:06:41.051Z,10988
2018-08-02T13:07:42.460Z,18688
2018-08-02T13:08:43.865Z,19968
2018-08-02T13:09:45.276Z,20256
2018-08-02T13:10:46.769Z,20192
2018-08-02T13:11:48.111Z,20256
2018-08-02T13:12:49.528Z,20064
2018-08-02T13:13:50.945Z,19776
2018-08-02T13:14:52.356Z,17280
2018-08-02T13:15:53.842Z,5136
2018-08-02T13:16:55.294Z,10860
2018-08-02T13:17:56.673Z,19264
2018-08-02T13:18:58.084Z,19840
2018-08-02T13:19:59.490Z,20576
2018-08-02T13:21:00.898Z,19968
2018-08-02T13:22:02.306Z,7488
2018-08-02T13:23:03.716Z,4380
2018-08-02T13:24:05.125Z,4552
2018-08-02T13:25:06.533Z,5880
2018-08-02T13:26:07.948Z,11632
2018-08-02T13:27:09.364Z,15968
2018-08-02T13:28:10.814Z,10700
2018-08-02T13:29:12.230Z,8648
2018-08-02T13:30:13.640Z,4348
2018-08-02T13:31:15.055Z,3940
2018-08-02T13:32:16.456Z,3740
2018-08-02T13:33:17.861Z,3624
2018-08-02T13:34:19.277Z,3604
2018-08-02T13:35:20.879Z,3848
2018-08-02T13:36:22.324Z,4188
2018-08-02T13:37:23.666Z,4440
2018-08-02T13:38:25.074Z,4852
2018-08-02T13:39:26.485Z,19712
2018-08-02T13:40:27.896Z,12260
2018-08-02T13:41:29.306Z,18784
2018-08-02T13:42:30.717Z,11948
2018-08-02T13:43:32.149Z,5948
2018-08-02T13:44:33.638Z,8756
2018-08-02T13:45:34.966Z,14236
2018-08-02T13:46:36.374Z,16256
2018-08-02T13:47:37.784Z,18240
2018-08-02T13:48:39.229Z,18464
2018-08-02T13:49:40.605Z,19040
2018-08-02T13:50:42.007Z,19168
2018-08-02T13:51:43.415Z,19072
2018-08-02T13:52:44.891Z,18880
2018-08-02T13:53:46.235Z,18816
2018-08-02T13:54:47.811Z,18432
2018-08-02T13:55:49.156Z,18272
2018-08-02T13:56:50.565Z,18144
2018-08-02T13:57:51.974Z,18176
2018-08-02T13:58:53.379Z,18048
2018-08-02T13:59:54.786Z,17920
2018-08-02T14:00:56.198Z,17920